Time;durP1;ratioP1;P1;durP2;ratioP2;P2;SDS_P1;SDS_P2;PMS_P1;PMS_P2;Temp;Humidity;BMP_temperature;BMP_pressure;BME280_temperature;BME280_humidity;BME280_pressure;Samples;Min_cycle;Max_cycle;Signal;HPM_P1;HPM_P2
2022/04/17 00:00:36;;;;;;;3.10;2.53;;;;;;;4.77;52.51;96719.28;5015789;28;20576;-82
2022/04/17 00:03:01;;;;;;;3.70;2.50;;;;;;;4.70;53.13;96712.81;5033367;28;20188;-82
2022/04/17 00:05:27;;;;;;;4.00;2.77;;;;;;;4.60;53.19;96716.81;5033950;28;20222;-82
2022/04/17 00:07:52;;;;;;;3.93;2.70;;;;;;;4.60;53.02;96718.53;5033692;28;20221;-81
2022/04/17 00:10:17;;;;;;;3.83;2.83;;;;;;;4.59;53.09;96709.13;5050037;28;20170;-81
2022/04/17 00:12:43;;;;;;;6.03;2.67;;;;;;;4.57;53.36;96701.50;5033033;28;20576;-82
2022/04/17 00:15:12;;;;;;;3.00;2.50;;;;;;;4.56;53.53;96705.00;5033355;28;20195;-82
2022/04/17 00:17:42;;;;;;;3.43;3.13;;;;;;;4.51;53.53;96696.72;5017052;28;20200;-81
2022/04/17 00:20:17;;;;;;;3.03;2.50;;;;;;;4.52;53.44;96700.94;5032775;28;20280;-82
2022/04/17 00:22:42;;;;;;;4.60;2.60;;;;;;;4.50;53.44;96700.16;5032372;28;20174;-82
2022/04/17 00:25:08;;;;;;;4.00;2.63;;;;;;;4.45;53.42;96702.19;5016866;28;20190;-81
2022/04/17 00:27:39;;;;;;;4.27;2.87;;;;;;;4.50;53.74;96707.88;5016437;28;20199;-81
2022/04/17 00:30:05;;;;;;;4.10;2.60;;;;;;;4.49;53.24;96704.50;5033236;28;20171;-82
2022/04/17 00:32:31;;;;;;;3.43;2.37;;;;;;;4.42;53.90;96699.78;5031452;28;20201;-82
2022/04/17 00:34:57;;;;;;;3.83;2.80;;;;;;;4.40;54.07;96699.84;5049127;28;20258;-82
2022/04/17 00:37:22;;;;;;;5.57;3.17;;;;;;;4.46;53.64;96699.50;5016228;28;20196;-81
2022/04/17 00:39:48;;;;;;;5.20;3.37;;;;;;;4.41;53.67;96692.94;5032816;28;20273;-81
2022/04/17 00:42:13;;;;;;;3.67;2.67;;;;;;;4.28;53.73;96690.22;5032236;28;20181;-82
2022/04/17 00:44:38;;;;;;;5.43;2.73;;;;;;;4.25;54.42;96692.97;5032954;28;20182;-82
2022/04/17 00:47:08;;;;;;;5.97;3.30;;;;;;;4.19;54.83;96696.66;5015092;28;20200;-82
2022/04/17 00:49:34;;;;;;;3.33;2.50;;;;;;;4.16;54.44;96694.28;5016308;28;20531;-82
2022/04/17 00:51:59;;;;;;;3.07;2.60;;;;;;;4.16;54.60;96696.00;5021755;28;20190;-81
2022/04/17 00:54:26;;;;;;;5.70;3.10;;;;;;;4.19;54.65;96688.97;5012900;28;20184;-82
2022/04/17 00:56:52;;;;;;;5.40;2.50;;;;;;;4.11;54.35;96683.38;5012531;28;20307;-82
2022/04/17 00:59:17;;;;;;;5.97;3.03;;;;;;;4.03;54.99;96682.94;5013890;28;20579;-82
2022/04/17 01:01:43;;;;;;;3.30;2.40;;;;;;;4.06;55.07;96680.22;5011724;28;20199;-82
2022/04/17 01:04:09;;;;;;;5.93;2.87;;;;;;;4.06;55.06;96682.78;5012438;28;20182;-82
2022/04/17 01:06:34;;;;;;;5.20;3.20;;;;;;;3.98;55.27;96680.63;4995915;28;20177;-82
2022/04/17 01:09:00;;;;;;;4.07;2.80;;;;;;;3.95;55.19;96672.25;5024493;28;20179;-83
2022/04/17 01:11:26;;;;;;;4.87;2.70;;;;;;;4.06;55.15;96669.09;5013941;28;20704;-82
2022/04/17 01:13:52;;;;;;;6.30;3.13;;;;;;;3.94;55.22;96666.28;5015429;28;20178;-82
2022/04/17 01:16:18;;;;;;;3.93;2.67;;;;;;;3.88;55.81;96666.56;5014956;28;20182;-82
2022/04/17 01:19:03;;;;;;;4.57;2.80;;;;;;;3.87;55.90;96661.53;5014894;28;20221;-82
2022/04/17 01:21:30;;;;;;;3.23;2.87;;;;;;;3.78;55.97;96664.56;5014805;28;20335;-82
2022/04/17 01:26:56;;;;;;;6.33;3.10;;;;;;;3.71;56.61;96658.94;5031653;28;20219;-82
2022/04/17 01:29:23;;;;;;;3.50;3.17;;;;;;;3.62;56.73;96655.09;5015513;28;20179;-82
2022/04/17 01:31:48;;;;;;;4.17;2.70;;;;;;;3.56;57.09;96655.41;5011212;28;20265;-82
2022/04/17 01:34:15;;;;;;;6.60;3.17;;;;;;;3.55;57.16;96652.91;5011755;28;20604;-82
2022/04/17 01:36:44;;;;;;;4.53;3.33;;;;;;;3.43;57.82;96646.63;4995170;28;20273;-82
2022/04/17 01:39:10;;;;;;;3.93;2.77;;;;;;;3.35;57.96;96647.03;5011259;28;20199;-82
2022/04/17 01:41:36;;;;;;;4.50;2.60;;;;;;;3.41;58.30;96641.59;5010893;28;20183;-82
2022/04/17 01:44:02;;;;;;;4.87;2.87;;;;;;;3.33;57.99;96637.75;5011701;28;20190;-82
2022/04/17 01:46:27;;;;;;;4.17;3.30;;;;;;;3.29;58.41;96646.53;5011301;28;20254;-82
2022/04/17 01:48:54;;;;;;;4.73;3.07;;;;;;;3.27;58.69;96643.19;4993597;28;20731;-82
2022/04/17 01:51:19;;;;;;;4.57;2.90;;;;;;;3.26;58.81;96637.22;4994291;28;20665;-82
2022/04/17 01:53:44;;;;;;;4.17;3.13;;;;;;;3.23;58.84;96631.41;5011151;28;20175;-82
2022/04/17 01:56:10;;;;;;;4.67;3.40;;;;;;;3.13;59.58;96636.19;5012345;28;20173;-82
2022/04/17 01:58:35;;;;;;;4.43;2.80;;;;;;;3.11;59.12;96638.00;5012265;28;20203;-81
2022/04/17 02:01:00;;;;;;;4.20;3.17;;;;;;;3.13;59.24;96631.88;5011596;28;20531;-82
2022/04/17 02:03:26;;;;;;;4.17;3.33;;;;;;;3.02;59.08;96629.00;5011232;28;20214;-82
2022/04/17 02:05:51;;;;;;;4.77;3.10;;;;;;;3.03;59.33;96624.72;4995814;28;20270;-82
2022/04/17 02:08:16;;;;;;;3.67;3.10;;;;;;;2.97;59.71;96618.13;5011553;28;20194;-82
2022/04/17 02:10:42;;;;;;;3.40;3.00;;;;;;;2.94;59.72;96615.72;4995778;28;20188;-82
2022/04/17 02:13:08;;;;;;;4.07;2.97;;;;;;;2.93;59.82;96608.94;5012055;28;20183;-82
2022/04/17 02:15:33;;;;;;;3.77;3.23;;;;;;;2.98;59.86;96611.25;5011102;28;20174;-81
2022/04/17 02:17:59;;;;;;;4.43;3.10;;;;;;;2.89;59.68;96602.28;5010736;28;20686;-82
2022/04/17 02:20:24;;;;;;;5.77;3.47;;;;;;;2.92;59.76;96607.28;5010539;28;20203;-82
2022/04/17 02:22:49;;;;;;;4.10;3.33;;;;;;;2.89;59.56;96606.56;5009841;28;20175;-81
2022/04/17 02:25:14;;;;;;;4.57;3.53;;;;;;;2.81;60.00;96605.22;5010592;28;20643;-82
2022/04/17 02:27:40;;;;;;;4.43;3.40;;;;;;;2.85;59.85;96605.91;5010241;28;20576;-82
2022/04/17 02:30:06;;;;;;;4.50;3.43;;;;;;;2.87;59.69;96608.41;5010641;28;20652;-82
2022/04/17 02:32:31;;;;;;;4.30;3.70;;;;;;;2.78;60.00;96604.53;5010236;28;20187;-82
2022/04/17 02:34:56;;;;;;;4.97;3.00;;;;;;;2.78;60.34;96599.41;4993809;28;20182;-82
2022/04/17 02:37:22;;;;;;;6.47;3.27;;;;;;;2.67;60.28;96593.97;5010028;28;20199;-82
2022/04/17 02:39:47;;;;;;;4.30;3.03;;;;;;;2.73;60.37;96594.50;4995621;28;20747;-82
2022/04/17 02:42:13;;;;;;;3.83;3.00;;;;;;;2.64;60.66;96586.41;5012129;28;20347;-82
2022/04/17 02:44:38;;;;;;;3.57;2.97;;;;;;;2.68;60.97;96582.81;5011768;28;20179;-82
2022/04/17 02:49:47;;;;;;;3.97;3.27;;;;;;;2.58;61.48;96576.47;5012617;28;20257;-82
2022/04/17 02:52:12;;;;;;;5.10;3.83;;;;;;;2.60;61.50;96578.03;4993981;28;20548;-82
2022/04/17 02:54:38;;;;;;;4.40;3.73;;;;;;;2.52;61.40;96575.84;5010824;28;20297;-82
2022/04/17 02:57:04;;;;;;;6.00;3.30;;;;;;;2.63;60.94;96574.50;5011410;28;20206;-82
2022/04/17 02:59:29;;;;;;;4.60;3.10;;;;;;;2.52;61.23;96575.03;5010508;28;20221;-83
2022/04/17 03:07:22;;;;;;;4.43;3.80;;;;;;;2.45;61.65;96592.41;5010807;28;20290;-81
2022/04/17 03:09:48;;;;;;;4.47;3.60;;;;;;;2.49;61.50;96582.88;5010292;28;20572;-82
2022/04/17 03:12:14;;;;;;;4.07;3.50;;;;;;;2.49;61.35;96593.13;5009641;28;20531;-81
2022/04/17 03:14:39;;;;;;;7.37;3.67;;;;;;;2.52;61.66;96591.22;4994292;28;20225;-81
2022/04/17 03:17:06;;;;;;;6.07;3.97;;;;;;;2.40;61.64;96594.38;4994020;28;20686;-81
2022/04/17 03:19:31;;;;;;;3.73;3.40;;;;;;;2.36;62.02;96590.28;5009937;28;20336;-82
2022/04/17 03:21:56;;;;;;;4.60;3.57;;;;;;;2.38;61.94;96585.09;5009710;28;20179;-81
2022/04/17 03:24:22;;;;;;;7.43;4.00;;;;;;;2.33;61.76;96589.63;5011591;28;20278;-81
2022/04/17 03:26:47;;;;;;;4.37;3.50;;;;;;;2.33;61.99;96587.88;5009875;28;20222;-81
2022/04/17 03:29:13;;;;;;;6.50;4.23;;;;;;;2.27;62.24;96583.88;5009981;28;20547;-81
2022/04/17 03:31:38;;;;;;;5.50;3.60;;;;;;;2.36;61.82;96584.34;5009626;28;20183;-81
2022/04/17 03:34:06;;;;;;;4.47;3.37;;;;;;;2.39;62.23;96577.34;4993605;28;20229;-81
2022/04/17 03:36:31;;;;;;;3.93;3.53;;;;;;;2.33;61.97;96571.69;5014229;28;20182;-81
2022/04/17 03:38:57;;;;;;;3.97;3.50;;;;;;;2.40;62.10;96578.19;5014006;28;20214;-81
2022/04/17 03:41:22;;;;;;;6.53;3.73;;;;;;;2.33;62.09;96575.06;5029733;28;20681;-81
2022/04/17 03:43:48;;;;;;;5.57;4.10;;;;;;;2.30;62.42;96572.66;5014035;28;20202;-82
2022/04/17 03:46:13;;;;;;;5.23;3.83;;;;;;;2.27;62.55;96580.47;5013762;28;20670;-81
2022/04/17 03:48:38;;;;;;;6.43;4.17;;;;;;;2.28;62.63;96574.44;5012364;28;20268;-81
2022/04/17 03:51:04;;;;;;;6.20;4.03;;;;;;;2.19;62.71;96577.44;4997083;28;20175;-81
2022/04/17 03:53:29;;;;;;;4.33;3.70;;;;;;;2.22;63.01;96574.75;5012811;28;20600;-81
2022/04/17 03:55:54;;;;;;;4.10;3.60;;;;;;;2.14;63.02;96569.16;5013496;28;20182;-81
2022/04/17 03:58:20;;;;;;;5.90;4.13;;;;;;;2.20;63.01;96561.16;4996942;28;20222;-81
2022/04/17 04:00:47;;;;;;;4.50;3.70;;;;;;;2.20;63.16;96571.41;5013186;28;20206;-81
2022/04/17 04:03:12;;;;;;;4.90;3.60;;;;;;;2.16;63.07;96575.84;5014011;28;20171;-82
2022/04/17 04:05:37;;;;;;;4.47;4.00;;;;;;;2.11;63.37;96569.28;5013323;28;20544;-81
2022/04/17 04:08:03;;;;;;;3.90;3.60;;;;;;;2.08;63.18;96577.09;5013169;28;20655;-81
2022/04/17 04:10:28;;;;;;;4.93;4.10;;;;;;;2.03;63.49;96569.63;5013461;28;20189;-81
2022/04/17 04:12:54;;;;;;;7.07;3.93;;;;;;;2.03;63.64;96567.06;4996503;28;20186;-81
2022/04/17 04:15:19;;;;;;;5.80;3.93;;;;;;;1.97;64.28;96578.44;4996718;28;20596;-81
2022/04/17 04:17:44;;;;;;;4.83;4.33;;;;;;;1.98;64.30;96576.69;5012737;28;20195;-81
2022/04/17 04:20:10;;;;;;;4.63;3.53;;;;;;;1.96;64.68;96584.47;4996462;28;20211;-81
2022/04/17 04:22:35;;;;;;;4.40;4.00;;;;;;;1.92;64.87;96579.53;5012164;28;20171;-81
2022/04/17 04:25:00;;;;;;;5.23;4.30;;;;;;;1.91;64.79;96590.69;4996457;28;20183;-81
2022/04/17 04:30:10;;;;;;;5.13;4.47;;;;;;;1.88;64.97;96576.28;5013127;28;20189;-81
2022/04/17 04:32:35;;;;;;;5.87;4.03;;;;;;;1.98;64.88;96572.41;5012084;28;20179;-81
2022/04/17 04:35:01;;;;;;;5.53;4.00;;;;;;;1.92;64.86;96575.25;5012655;28;20189;-82
2022/04/17 04:37:27;;;;;;;8.10;4.60;;;;;;;1.89;64.96;96572.84;5012819;28;20191;-81
2022/04/17 04:39:52;;;;;;;7.80;4.23;;;;;;;1.90;65.08;96578.78;5029024;28;20209;-82
2022/04/17 04:42:21;;;;;;;5.80;4.40;;;;;;;1.94;65.06;96573.47;5012300;28;20182;-81
2022/04/17 04:44:47;;;;;;;4.77;4.30;;;;;;;2.02;64.22;96577.38;5012270;28;20367;-81
2022/04/17 04:47:15;;;;;;;7.07;4.27;;;;;;;2.04;64.55;96565.34;5011171;28;20309;-81
2022/04/17 04:49:40;;;;;;;5.30;4.13;;;;;;;1.99;64.74;96558.69;5012108;28;20258;-81
2022/04/17 04:52:06;;;;;;;5.70;3.73;;;;;;;2.24;64.01;96562.69;5015249;28;20183;-81
2022/04/17 04:54:32;;;;;;;6.10;3.90;;;;;;;2.91;62.56;96566.28;5000897;28;20183;-81
2022/04/17 04:56:58;;;;;;;4.87;4.30;;;;;;;4.49;57.10;96562.19;5015784;28;20286;-82
2022/04/17 04:59:23;;;;;;;3.93;3.50;;;;;;;6.49;51.94;96566.50;5014435;28;20293;-82
2022/04/17 05:01:49;;;;;;;4.30;3.53;;;;;;;7.04;48.32;96570.69;4997568;28;20179;-82
2022/04/17 05:04:16;;;;;;;4.13;3.67;;;;;;;6.30;49.21;96571.19;5015894;28;20172;-81
2022/04/17 05:06:42;;;;;;;4.53;3.93;;;;;;;5.87;50.57;96568.66;4997494;28;20182;-81
2022/04/17 05:09:07;;;;;;;4.10;3.70;;;;;;;5.14;52.56;96575.63;5014011;28;20267;-81
2022/04/17 05:11:33;;;;;;;4.00;3.50;;;;;;;4.94;53.74;96565.63;4997075;28;20190;-81
2022/04/17 05:13:58;;;;;;;4.57;3.50;;;;;;;4.55;53.64;96562.69;5014168;28;20191;-82
2022/04/17 05:16:23;;;;;;;4.83;3.40;;;;;;;4.50;54.87;96563.84;5013517;28;20237;-81
2022/04/17 05:18:56;;;;;;;4.70;3.50;;;;;;;4.16;55.42;96565.72;4997102;28;20239;-81
2022/04/17 05:21:31;;;;;;;4.53;3.80;;;;;;;4.11;56.23;96567.72;5013528;28;20245;-81
2022/04/17 05:23:56;;;;;;;4.20;3.80;;;;;;;4.10;56.33;96570.38;5013644;28;20174;-82
2022/04/17 05:26:23;;;;;;;4.67;3.90;;;;;;;3.97;57.29;96575.31;4996943;28;20246;-82
2022/04/17 05:28:49;;;;;;;4.73;4.23;;;;;;;3.85;57.12;96574.25;5014661;28;20207;-81
2022/04/17 05:31:14;;;;;;;4.50;3.80;;;;;;;3.79;57.57;96576.31;5014177;28;20184;-81
2022/04/17 05:33:39;;;;;;;5.60;3.87;;;;;;;3.82;57.49;96579.56;5014217;28;20214;-81
2022/04/17 05:36:05;;;;;;;4.43;3.70;;;;;;;3.77;57.35;96573.00;4998389;28;20179;-81
2022/04/17 05:38:30;;;;;;;5.37;3.93;;;;;;;3.73;58.24;96576.66;4997438;28;20213;-81
2022/04/17 05:40:56;;;;;;;4.10;3.60;;;;;;;3.88;57.70;96580.94;5014372;28;20184;-82
2022/04/17 05:43:21;;;;;;;5.40;3.70;;;;;;;3.82;57.95;96579.56;4996706;28;20175;-81
2022/04/17 05:45:48;;;;;;;5.13;3.83;;;;;;;3.84;57.37;96588.00;4997830;28;20179;-82
2022/04/17 05:48:14;;;;;;;4.37;3.20;;;;;;;3.91;57.19;96593.66;5011706;28;20206;-82
2022/04/17 05:50:40;;;;;;;5.53;3.17;;;;;;;3.91;57.37;96588.53;5020730;28;20178;-81
2022/04/17 05:53:05;;;;;;;4.87;3.90;;;;;;;4.03;57.61;96595.56;5031815;28;20179;-81
2022/04/17 05:55:31;;;;;;;4.70;3.60;;;;;;;4.06;56.96;96587.69;5032691;28;20187;-80
2022/04/17 05:57:57;;;;;;;4.17;3.67;;;;;;;4.00;57.03;96592.34;5032113;28;20282;-80
2022/04/17 06:00:22;;;;;;;4.57;4.07;;;;;;;4.04;57.17;96589.50;5031747;28;20590;-81
2022/04/17 06:02:48;;;;;;;3.87;3.53;;;;;;;4.00;57.47;96603.44;5027152;28;20780;-80
2022/04/17 06:05:15;;;;;;;4.13;3.20;;;;;;;4.20;57.58;96594.66;5024827;28;20178;-80
2022/04/17 06:07:40;;;;;;;4.20;3.20;;;;;;;4.23;57.20;96595.31;5024481;28;20229;-80
2022/04/17 06:10:08;;;;;;;4.37;3.03;;;;;;;4.26;56.65;96594.34;5002704;28;20643;-80
2022/04/17 06:12:34;;;;;;;5.97;3.63;;;;;;;4.22;56.93;96603.09;5016144;28;20187;-81
2022/04/17 06:15:00;;;;;;;5.07;3.43;;;;;;;4.26;56.38;96590.03;4993198;28;20186;-80
2022/04/17 06:17:25;;;;;;;4.83;3.20;;;;;;;4.38;56.69;96592.81;5009639;28;20195;-79
2022/04/17 06:19:50;;;;;;;4.37;3.40;;;;;;;4.44;56.69;96592.50;5009507;28;20509;-80
2022/04/17 06:22:17;;;;;;;3.60;3.10;;;;;;;4.56;56.04;96581.50;5019980;28;20297;-79
2022/04/17 06:24:43;;;;;;;3.70;3.30;;;;;;;4.46;55.81;96588.09;5029327;28;20210;-80
2022/04/17 06:27:08;;;;;;;3.53;3.23;;;;;;;4.68;55.53;96585.13;5030015;28;20236;-80
2022/04/17 06:29:34;;;;;;;4.97;3.37;;;;;;;4.59;55.44;96576.19;5013965;28;20551;-80
2022/04/17 06:32:00;;;;;;;3.97;3.20;;;;;;;4.72;55.22;96579.75;5013869;28;20211;-80
2022/04/17 06:34:25;;;;;;;3.43;3.10;;;;;;;4.76;56.04;96586.34;5014252;28;20187;-80
2022/04/17 06:36:50;;;;;;;3.23;2.90;;;;;;;4.97;55.40;96584.34;5030990;28;20278;-81
2022/04/17 06:39:16;;;;;;;3.30;2.70;;;;;;;4.95;54.92;96591.31;5013780;28;20561;-79
2022/04/17 06:41:41;;;;;;;4.17;3.60;;;;;;;5.09;54.26;96587.94;5012755;28;20226;-80
2022/04/17 06:44:06;;;;;;;5.30;3.47;;;;;;;5.04;54.18;96587.38;5015628;28;20187;-80
2022/04/17 06:46:32;;;;;;;4.73;3.57;;;;;;;5.10;54.49;96581.88;5014315;28;20579;-80
2022/04/17 06:48:58;;;;;;;4.80;3.10;;;;;;;5.29;54.28;96579.88;5014420;28;20177;-81
2022/04/17 06:51:24;;;;;;;3.63;3.20;;;;;;;5.34;52.77;96580.44;5013651;28;20631;-80
2022/04/17 06:53:50;;;;;;;5.10;3.53;;;;;;;5.40;53.90;96582.66;5030751;28;20237;-80
2022/04/17 06:56:18;;;;;;;3.90;3.47;;;;;;;5.55;53.85;96577.50;5013671;28;20175;-80
2022/04/17 06:58:44;;;;;;;5.03;3.20;;;;;;;5.68;52.92;96570.72;5013984;28;20681;-80
2022/04/17 07:01:09;;;;;;;3.30;2.87;;;;;;;5.84;53.01;96574.00;5029073;28;20181;-80
2022/04/17 07:03:34;;;;;;;4.60;3.20;;;;;;;5.85;51.77;96569.69;5030071;28;20209;-80
2022/04/17 07:06:00;;;;;;;4.67;3.00;;;;;;;5.98;51.53;96560.28;5030526;28;20355;-80
2022/04/17 07:08:25;;;;;;;4.37;2.80;;;;;;;5.99;52.11;96561.94;5030212;28;20196;-80
2022/04/17 07:10:50;;;;;;;5.10;3.50;;;;;;;5.97;51.42;96559.47;5030154;28;20190;-80
2022/04/17 07:13:18;;;;;;;3.67;3.20;;;;;;;6.08;50.54;96560.53;5029775;28;20224;-80
2022/04/17 07:15:43;;;;;;;6.20;3.47;;;;;;;6.17;50.67;96562.56;5030215;28;20700;-80
2022/04/17 07:18:09;;;;;;;4.80;3.13;;;;;;;6.28;50.49;96567.88;5030184;28;20198;-80
2022/04/17 07:20:35;;;;;;;5.23;3.50;;;;;;;6.43;49.92;96559.16;5013841;28;20626;-80
2022/04/17 07:23:01;;;;;;;3.80;2.77;;;;;;;6.58;51.16;96559.94;5046412;28;20553;-80
2022/04/17 07:25:27;;;;;;;4.33;3.20;;;;;;;6.37;50.41;96559.56;5030767;28;20182;-81
2022/04/17 07:27:53;;;;;;;4.23;3.47;;;;;;;6.50;50.36;96549.28;5033456;28;20230;-80
2022/04/17 07:30:21;;;;;;;5.00;3.00;;;;;;;6.60;50.19;96557.25;5056739;28;20158;-80
2022/04/17 07:32:50;;;;;;;4.57;3.23;;;;;;;6.79;49.49;96553.38;5055620;28;20154;-80
2022/04/17 07:35:17;;;;;;;5.47;3.23;;;;;;;6.89;48.58;96545.03;5039506;28;20166;-80
2022/04/17 07:37:47;;;;;;;3.83;3.27;;;;;;;6.90;48.85;96534.63;5055867;28;20213;-80
2022/04/17 07:40:21;;;;;;;5.27;3.33;;;;;;;6.85;48.92;96546.19;5039225;28;20186;-80
2022/04/17 07:42:50;;;;;;;3.27;2.83;;;;;;;7.14;47.72;96546.81;5056115;28;20167;-80
2022/04/17 07:45:16;;;;;;;4.13;2.97;;;;;;;7.36;47.50;96541.88;5056038;28;20159;-80
2022/04/17 07:47:42;;;;;;;4.30;2.83;;;;;;;7.33;47.50;96544.66;5039420;28;20583;-79
2022/04/17 07:50:09;;;;;;;3.97;2.83;;;;;;;7.41;46.87;96541.56;5055979;28;20170;-80
2022/04/17 07:52:34;;;;;;;2.93;2.63;;;;;;;7.30;46.96;96544.88;5055930;28;20171;-80
2022/04/17 07:55:01;;;;;;;3.10;2.80;;;;;;;7.57;46.38;96547.34;5055706;28;20169;-80
2022/04/17 07:57:26;;;;;;;4.17;2.63;;;;;;;7.57;45.59;96540.41;5039202;28;20179;-80
2022/04/17 07:59:55;;;;;;;2.90;2.20;;;;;;;7.56;44.81;96538.78;5055433;28;20252;-80
2022/04/17 08:02:22;;;;;;;3.63;2.43;;;;;;;7.79;44.19;96533.78;5053859;28;20175;-80
2022/04/17 08:04:51;;;;;;;5.33;2.50;;;;;;;7.79;44.06;96529.44;5039066;28;20221;-79
2022/04/17 08:07:18;;;;;;;2.30;2.10;;;;;;;7.99;43.80;96525.47;5055547;28;20182;-80
2022/04/17 08:09:43;;;;;;;4.20;2.20;;;;;;;8.10;42.42;96516.94;5033722;28;20195;-82
2022/04/17 08:12:08;;;;;;;2.77;2.20;;;;;;;8.23;42.30;96522.91;5032554;28;20189;-81
2022/04/17 08:14:34;;;;;;;4.27;2.37;;;;;;;8.45;41.65;96517.84;5032707;28;20217;-81
2022/04/17 08:16:59;;;;;;;2.50;2.30;;;;;;;8.37;42.47;96519.34;5032634;28;20199;-82
2022/04/17 08:19:24;;;;;;;3.77;2.40;;;;;;;8.42;41.50;96518.09;5032492;28;20206;-81
2022/04/17 08:21:51;;;;;;;3.33;2.33;;;;;;;8.43;40.71;96513.72;5035688;28;20212;-82
2022/04/17 08:24:16;;;;;;;2.70;1.90;;;;;;;8.41;40.44;96510.44;5036011;28;20274;-81
2022/04/17 08:26:42;;;;;;;3.93;2.30;;;;;;;8.43;40.47;96505.97;5036282;28;20210;-81
2022/04/17 08:29:09;;;;;;;3.20;2.67;;;;;;;8.74;41.99;96507.97;5052847;28;20549;-82
2022/04/17 08:31:34;;;;;;;4.10;2.00;;;;;;;8.80;41.45;96515.28;5036403;28;20650;-82
2022/04/17 08:34:00;;;;;;;3.73;1.70;;;;;;;8.95;40.47;96509.91;5019262;28;20178;-82
2022/04/17 08:36:25;;;;;;;3.90;2.03;;;;;;;9.13;40.04;96510.31;5036319;28;20189;-81
2022/04/17 08:38:50;;;;;;;2.10;1.90;;;;;;;9.19;40.89;96508.09;5035040;28;20206;-81
2022/04/17 08:41:17;;;;;;;3.20;1.83;;;;;;;9.41;40.01;96516.81;5035208;28;20190;-82
2022/04/17 08:43:42;;;;;;;2.00;1.80;;;;;;;9.42;39.30;96521.06;5035406;28;20281;-82
2022/04/17 08:46:10;;;;;;;3.30;1.83;;;;;;;9.43;37.70;96520.13;5034936;28;20194;-81
2022/04/17 08:48:36;;;;;;;5.03;2.40;;;;;;;9.35;38.52;96524.09;5034998;28;20201;-81
2022/04/17 08:51:02;;;;;;;2.40;1.73;;;;;;;9.59;37.10;96511.06;5035446;28;20202;-82
2022/04/17 08:53:27;;;;;;;3.57;1.80;;;;;;;9.58;38.98;96513.75;5035652;28;20224;-82
2022/04/17 08:55:53;;;;;;;2.40;2.13;;;;;;;9.54;38.55;96491.59;5033989;28;20187;-81
2022/04/17 08:58:18;;;;;;;3.20;1.93;;;;;;;9.69;40.15;96498.19;5033233;28;20246;-80
2022/04/17 09:00:44;;;;;;;1.93;1.70;;;;;;;9.53;36.92;96498.53;5032296;28;20202;-80
2022/04/17 09:03:09;;;;;;;1.77;1.60;;;;;;;9.64;36.71;96488.19;5032958;28;20598;-80
2022/04/17 09:05:37;;;;;;;3.60;2.00;;;;;;;9.80;38.09;96477.44;5033583;28;20183;-81
2022/04/17 09:08:19;;;;;;;4.10;2.03;;;;;;;10.06;38.81;96469.38;5033180;28;20241;-81
2022/04/17 09:10:55;;;;;;;2.30;1.80;;;;;;;10.07;37.20;96465.81;5032893;28;20177;-80
2022/04/17 09:13:29;;;;;;;4.20;2.63;;;;;;;10.34;37.66;96461.06;5016577;28;20305;-80
2022/04/17 09:15:55;;;;;;;2.20;1.93;;;;;;;10.30;36.43;96464.84;5049841;28;20237;-81
2022/04/17 09:18:20;;;;;;;4.20;2.00;;;;;;;10.53;37.43;96462.16;5050456;28;20195;-80
2022/04/17 09:20:46;;;;;;;1.63;1.53;;;;;;;10.68;37.37;96453.09;5032999;28;20666;-80
2022/04/17 09:23:12;;;;;;;2.77;1.87;;;;;;;10.61;36.22;96452.81;5032391;28;20487;-80
2022/04/17 09:25:37;;;;;;;3.47;2.00;;;;;;;10.67;36.37;96449.69;5032379;28;20537;-81
2022/04/17 09:28:07;;;;;;;3.73;1.83;;;;;;;10.70;36.47;96456.44;5032645;28;20728;-81
2022/04/17 09:30:39;;;;;;;3.00;1.70;;;;;;;10.94;36.83;96462.16;5033033;28;20167;-81
2022/04/17 09:33:09;;;;;;;1.87;1.67;;;;;;;10.77;35.17;96454.94;5014221;28;20178;-80
2022/04/17 09:35:35;;;;;;;2.70;1.83;;;;;;;10.85;37.16;96464.72;5032235;28;20202;-80
2022/04/17 09:38:03;;;;;;;3.97;1.73;;;;;;;10.97;35.45;96458.50;5032809;28;20580;-81
2022/04/17 09:40:31;;;;;;;1.87;1.47;;;;;;;11.10;35.03;96453.09;5037715;28;20240;-80
2022/04/17 09:43:11;;;;;;;2.00;1.80;;;;;;;10.93;36.35;96449.31;5040084;28;20186;-80
2022/04/17 09:46:04;;;;;;;2.40;1.60;;;;;;;10.41;35.11;96446.63;5015923;28;20189;-80
2022/04/17 09:48:40;;;;;;;2.83;1.70;;;;;;;10.44;35.67;96448.97;5015570;28;20694;-80
2022/04/17 09:51:25;;;;;;;2.70;1.80;;;;;;;10.24;35.45;96447.16;5015046;28;20683;-80
2022/04/17 09:54:01;;;;;;;3.07;1.90;;;;;;;10.73;36.00;96448.38;5049481;28;20179;-81
2022/04/17 09:56:40;;;;;;;2.43;1.90;;;;;;;10.49;36.62;96440.81;5033267;28;20213;-80
2022/04/17 09:59:23;;;;;;;1.80;1.70;;;;;;;10.86;35.39;96448.16;5034341;28;20624;-80
2022/04/17 10:01:59;;;;;;;2.43;1.97;;;;;;;11.22;34.94;96439.06;5026271;28;20313;-86
2022/04/17 10:04:26;;;;;;;2.17;1.70;;;;;;;10.94;34.17;96443.97;5008957;28;20244;-82
2022/04/17 10:06:53;;;;;;;2.60;1.80;;;;;;;10.90;35.21;96439.19;5025972;28;20198;-80
2022/04/17 10:09:18;;;;;;;1.73;1.60;;;;;;;10.95;34.65;96435.22;5022052;28;20202;-83
2022/04/17 10:11:44;;;;;;;2.10;1.67;;;;;;;10.90;34.93;96431.38;5028919;28;20954;-88
2022/04/17 10:14:10;;;;;;;2.63;2.27;;;;;;;10.76;35.54;96435.94;5019702;28;20179;-83
2022/04/17 10:16:39;;;;;;;2.90;1.80;;;;;;;10.75;35.35;96433.47;5035541;28;20177;-80
2022/04/17 10:19:13;;;;;;;3.57;2.00;;;;;;;10.97;35.13;96432.53;5034392;28;20203;-82
2022/04/17 10:21:42;;;;;;;4.23;2.23;;;;;;;11.11;36.35;96423.56;5014654;28;20191;-81
2022/04/17 10:24:11;;;;;;;3.83;2.00;;;;;;;11.33;36.13;96423.41;5031493;28;20174;-81
2022/04/17 10:26:47;;;;;;;2.57;2.10;;;;;;;11.31;35.80;96433.94;5015185;28;20185;-81
2022/04/17 10:29:56;;;;;;;2.53;1.73;;;;;;;10.94;34.96;96432.75;5031769;28;20253;-81
2022/04/17 10:32:35;;;;;;;2.23;1.80;;;;;;;10.96;35.86;96430.88;5017339;28;20552;-81
2022/04/17 10:35:10;;;;;;;2.70;1.90;;;;;;;10.99;35.38;96426.25;5015042;28;20267;-81
2022/04/17 10:37:45;;;;;;;5.97;2.40;;;;;;;11.53;35.17;96417.28;5031374;28;20198;-82
2022/04/17 10:40:11;;;;;;;2.40;1.90;;;;;;;11.75;33.97;96418.03;5033368;28;20198;-81
2022/04/17 10:42:53;;;;;;;2.03;1.73;;;;;;;11.70;34.62;96415.84;5031128;28;20183;-81
2022/04/17 10:45:19;;;;;;;4.27;2.50;;;;;;;11.44;33.81;96418.09;5049062;28;20213;-81
2022/04/17 10:48:09;;;;;;;2.23;2.03;;;;;;;10.99;33.17;96421.03;5031773;28;20624;-82
2022/04/17 10:50:51;;;;;;;2.43;1.70;;;;;;;11.59;35.09;96413.34;5031732;28;20221;-81
2022/04/17 10:53:25;;;;;;;2.60;1.50;;;;;;;11.95;33.46;96408.53;5030883;28;20185;-82
2022/04/17 10:56:04;;;;;;;1.70;1.60;;;;;;;11.94;32.65;96404.28;5048040;28;20277;-81
2022/04/17 10:59:01;;;;;;;1.63;1.53;;;;;;;11.73;32.99;96419.94;5031505;28;20255;-81
2022/04/17 11:01:41;;;;;;;2.60;1.40;;;;;;;11.79;32.93;96415.03;4973925;28;20210;-81
2022/04/17 11:04:16;;;;;;;1.77;1.67;;;;;;;11.74;32.56;96408.59;4990836;28;20179;-79
2022/04/17 11:06:44;;;;;;;4.07;2.00;;;;;;;11.98;32.51;96403.88;4993332;28;20192;-82
2022/04/17 11:09:09;;;;;;;1.50;1.30;;;;;;;12.22;33.94;96402.66;4974325;28;20211;-81
2022/04/17 11:11:43;;;;;;;1.93;1.30;;;;;;;12.43;31.97;96388.53;4989829;28;20293;-82
2022/04/17 11:14:13;;;;;;;3.40;1.60;;;;;;;11.73;30.90;96399.13;4975925;28;20192;-82
2022/04/17 11:16:58;;;;;;;2.23;1.60;;;;;;;11.66;31.12;96388.47;4990605;28;20188;-82
2022/04/17 11:19:34;;;;;;;2.40;1.50;;;;;;;11.85;32.25;96387.69;4974104;28;20278;-81
2022/04/17 11:22:05;;;;;;;2.73;1.30;;;;;;;12.18;32.81;96389.91;4973328;28;20595;-82
2022/04/17 11:24:54;;;;;;;2.20;1.30;;;;;;;12.21;31.42;96395.81;4973253;28;20223;-82
2022/04/17 11:27:36;;;;;;;2.60;2.03;;;;;;;12.11;32.96;96382.78;4990575;28;20222;-82
2022/04/17 11:30:03;;;;;;;3.23;1.50;;;;;;;12.62;32.27;96385.06;4975194;28;20183;-81
2022/04/17 11:32:28;;;;;;;2.17;1.97;;;;;;;11.82;31.33;96388.78;4990371;28;20191;-81
2022/04/17 11:34:55;;;;;;;2.63;1.60;;;;;;;12.04;31.84;96379.09;4991349;28;20307;-81
2022/04/17 11:37:28;;;;;;;2.50;1.50;;;;;;;12.51;32.98;96385.22;4990785;28;20206;-82
2022/04/17 11:39:58;;;;;;;3.87;1.60;;;;;;;12.07;32.13;96371.81;5048097;28;20210;-81
2022/04/17 11:42:27;;;;;;;2.10;1.90;;;;;;;12.21;32.45;96365.38;5030857;28;20210;-82
2022/04/17 11:44:53;;;;;;;1.70;1.57;;;;;;;12.14;33.23;96356.47;5032032;28;20659;-80
2022/04/17 11:47:20;;;;;;;2.57;1.60;;;;;;;12.39;31.54;96349.88;5031736;28;20198;-82
2022/04/17 11:49:47;;;;;;;2.40;1.50;;;;;;;12.53;32.28;96351.22;5031717;28;20181;-82
2022/04/17 11:52:18;;;;;;;2.60;1.30;;;;;;;13.01;32.04;96348.50;5047584;28;20179;-82
2022/04/17 11:54:45;;;;;;;2.90;1.50;;;;;;;13.28;31.79;96338.09;5020677;28;20179;-82